createdAt,value
2019-05-17T00:04:56.244Z,102589.02
2019-05-17T00:10:02.635Z,102584.88
2019-05-17T00:15:08.710Z,102577.64
2019-05-17T00:20:17.059Z,102555.53
2019-05-17T00:25:22.152Z,102549.22
2019-05-17T00:30:28.957Z,102559.70
2019-05-17T00:35:34.661Z,102567.87
2019-05-17T00:40:40.337Z,102563.48
2019-05-17T00:45:46.801Z,102601.74
2019-05-17T00:50:54.380Z,102602.13
2019-05-17T00:56:02.956Z,102598.38
2019-05-17T01:01:08.722Z,102600.23
2019-05-17T01:06:16.775Z,102589.73
2019-05-17T01:11:21.778Z,102583.25
2019-05-17T01:16:27.654Z,102567.81
2019-05-17T01:21:33.356Z,102569.90
2019-05-17T01:26:39.029Z,102596.83
2019-05-17T01:31:46.527Z,102594.95
2019-05-17T01:36:52.411Z,102593.56
2019-05-17T01:41:58.134Z,102601.69
2019-05-17T01:47:04.418Z,102612.84
2019-05-17T01:52:10.106Z,102613.92
2019-05-17T01:57:16.843Z,102611.59
2019-05-17T02:02:27.155Z,102608.16
2019-05-17T02:07:32.966Z,102628.79
2019-05-17T02:12:38.664Z,102644.70
2019-05-17T02:17:46.622Z,102660.02
2019-05-17T02:22:51.896Z,102661.44
2019-05-17T02:27:57.684Z,102662.93
2019-05-17T02:33:04.171Z,102660.89
2019-05-17T02:38:13.037Z,102661.59
2019-05-17T02:43:17.550Z,102656.00
2019-05-17T02:48:23.772Z,102670.19
2019-05-17T02:53:29.477Z,102661.31
2019-05-17T02:58:35.218Z,102649.99
2019-05-17T03:03:43.667Z,102657.80
2019-05-17T03:08:48.395Z,102664.28
2019-05-17T03:13:54.107Z,102663.10
2019-05-17T03:18:59.803Z,102669.22
2019-05-17T03:24:06.521Z,102671.11
2019-05-17T03:29:13.608Z,102670.33
2019-05-17T03:34:26.101Z,102664.18
2019-05-17T03:39:28.751Z,102639.08
2019-05-17T03:44:34.439Z,102627.23
2019-05-17T03:49:43.385Z,102614.67
2019-05-17T03:54:47.578Z,102574.92
2019-05-17T03:59:53.288Z,102534.33
2019-05-17T04:04:59.017Z,102514.44
2019-05-17T04:10:08.033Z,102511.36
2019-05-17T04:15:14.432Z,102526.93
2019-05-17T04:20:22.364Z,102525.67
2019-05-17T04:25:27.844Z,102516.35
2019-05-17T04:30:33.527Z,102508.16
2019-05-17T04:35:39.322Z,102482.70
2019-05-17T04:40:45.222Z,102437.60
2019-05-17T04:45:53.545Z,102414.07
2019-05-17T04:50:58.320Z,102400.71
2019-05-17T04:56:04.493Z,102433.51
2019-05-17T05:01:12.899Z,102460.43
2019-05-17T05:06:17.670Z,102408.75
2019-05-17T05:11:23.547Z,102400.33
2019-05-17T05:16:31.845Z,102412.61
2019-05-17T05:21:36.666Z,102390.19
2019-05-17T05:26:42.769Z,102368.72
2019-05-17T05:31:48.551Z,102377.64
2019-05-17T05:36:54.323Z,102370.79
2019-05-17T05:42:08.054Z,102380.52
2019-05-17T05:47:07.362Z,102384.02
2019-05-17T05:52:13.045Z,102431.36
2019-05-17T05:57:18.674Z,102469.59
2019-05-17T06:02:24.364Z,102535.64
2019-05-17T06:07:32.123Z,102602.17
2019-05-17T06:12:37.519Z,102706.42
2019-05-17T06:17:43.284Z,102750.05
2019-05-17T06:22:48.980Z,102776.45
2019-05-17T06:27:54.679Z,102780.47
2019-05-17T06:33:02.470Z,102784.52
2019-05-17T06:38:07.750Z,102779.77
2019-05-17T06:43:13.478Z,102758.08
2019-05-17T06:48:19.270Z,102752.92
2019-05-17T06:53:24.985Z,102733.41
2019-05-17T06:58:31.736Z,102718.55
2019-05-17T07:03:37.422Z,102676.67
2019-05-17T07:08:43.244Z,102603.95
2019-05-17T07:13:49.596Z,102481.56
2019-05-17T07:18:55.437Z,102303.34
2019-05-17T07:24:01.122Z,101991.52
2019-05-17T07:29:06.785Z,101560.95
2019-05-17T07:34:13.575Z,101057.16
2019-05-17T07:39:20.468Z,100630.93
2019-05-17T07:44:26.267Z,100472.97
2019-05-17T07:49:31.987Z,100534.80
2019-05-17T07:54:39.774Z,100382.91
2019-05-17T07:59:45.012Z,100096.03
2019-05-17T08:04:50.694Z,100027.69
2019-05-17T08:09:56.398Z,99645.03
2019-05-17T08:15:02.165Z,99322.33
2019-05-17T08:20:10.146Z,99137.89
2019-05-17T08:25:17.131Z,98745.84
2019-05-17T08:30:23.297Z,98302.70
2019-05-17T08:35:30.407Z,97892.68
2019-05-17T08:40:36.342Z,97561.25
2019-05-17T08:45:42.232Z,97324.95
2019-05-17T08:50:49.467Z,97424.26
2019-05-17T08:55:55.378Z,97676.31
2019-05-17T09:01:01.148Z,97912.09
2019-05-17T09:06:06.834Z,97893.56
2019-05-17T09:11:12.489Z,98024.77
2019-05-17T09:16:19.565Z,98009.09
2019-05-17T09:21:25.521Z,98001.12
2019-05-17T09:26:31.326Z,97951.34
2019-05-17T09:31:40.266Z,97848.67
2019-05-17T09:36:46.213Z,97913.39
2019-05-17T09:41:51.913Z,97977.45
2019-05-17T09:46:59.516Z,98035.94
2019-05-17T09:52:05.494Z,98088.98
2019-05-17T09:57:11.507Z,97999.95
2019-05-17T10:02:17.500Z,97947.76
2019-05-17T10:07:23.311Z,97939.05
2019-05-17T10:12:29.392Z,97953.48
2019-05-17T10:17:35.173Z,97983.30
2019-05-17T10:22:42.239Z,98155.41
2019-05-17T10:27:49.809Z,98229.83
2019-05-17T10:32:55.846Z,98259.39
2019-05-17T10:38:01.540Z,98378.73
2019-05-17T10:43:09.845Z,98537.41
2019-05-17T10:48:15.039Z,98657.98
2019-05-17T10:53:20.920Z,98733.56
2019-05-17T10:58:26.872Z,98627.09
2019-05-17T11:03:32.697Z,98516.63
2019-05-17T11:08:38.390Z,98608.45
2019-05-17T11:13:44.062Z,98647.90
2019-05-17T11:18:49.807Z,98590.43
2019-05-17T11:23:55.486Z,98457.97
2019-05-17T11:29:01.211Z,98439.88
2019-05-17T11:34:07.143Z,98347.77
2019-05-17T11:39:13.026Z,98213.39
2019-05-17T11:44:18.730Z,98148.95
2019-05-17T11:49:24.536Z,98178.56
2019-05-17T11:54:30.266Z,98210.19
2019-05-17T11:59:36.183Z,98249.45
2019-05-17T12:04:41.935Z,98407.83
2019-05-17T12:09:47.633Z,98512.70
2019-05-17T12:14:53.337Z,98714.73
2019-05-17T12:19:59.081Z,98625.66
2019-05-17T12:25:06.756Z,98603.31
2019-05-17T12:30:12.994Z,98814.61
2019-05-17T12:35:18.693Z,98659.19
2019-05-17T12:40:25.922Z,98604.70
2019-05-17T12:45:31.644Z,98631.38
2019-05-17T12:50:37.476Z,98765.63
2019-05-17T12:55:43.239Z,98833.55
2019-05-17T13:00:49.189Z,99019.67
2019-05-17T13:05:55.109Z,98804.66
2019-05-17T13:11:01.033Z,98738.34
2019-05-17T13:16:17.595Z,98982.06
2019-05-17T13:21:14.449Z,98995.30
2019-05-17T13:26:20.214Z,99014.30
2019-05-17T13:31:25.992Z,98940.56
2019-05-17T13:36:32.727Z,98656.84
2019-05-17T13:41:38.633Z,98418.56
2019-05-17T13:46:44.398Z,98397.40
2019-05-17T13:51:50.084Z,98325.91
2019-05-17T13:56:55.820Z,98271.79
2019-05-17T14:02:01.510Z,98387.48
2019-05-17T14:07:07.324Z,98316.61
2019-05-17T14:12:13.039Z,98502.53
2019-05-17T14:17:18.863Z,98510.91
2019-05-17T14:22:24.674Z,98467.11
2019-05-17T14:27:30.452Z,98560.00
2019-05-17T14:32:36.249Z,98744.88
2019-05-17T14:37:42.053Z,98693.64
2019-05-17T14:42:47.818Z,98601.92
2019-05-17T14:47:53.422Z,98669.16
2019-05-17T14:52:59.198Z,98735.86
2019-05-17T14:58:04.898Z,98721.20
2019-05-17T15:03:10.498Z,98678.34
2019-05-17T15:08:16.210Z,98652.67
2019-05-17T15:13:21.900Z,98660.98
2019-05-17T15:18:27.571Z,98758.87
2019-05-17T15:23:33.691Z,98838.14
2019-05-17T15:28:39.552Z,98873.23
2019-05-17T15:33:45.623Z,98865.14
2019-05-17T15:38:51.515Z,98829.00
2019-05-17T15:43:57.180Z,98819.83
2019-05-17T15:49:03.925Z,98761.48
2019-05-17T15:54:09.964Z,98677.42
2019-05-17T15:59:15.643Z,98782.44
2019-05-17T16:04:21.396Z,97874.56
2019-05-17T16:09:27.289Z,97915.52
2019-05-17T16:14:33.111Z,97594.03
2019-05-17T16:19:38.998Z,98324.56
2019-05-17T16:24:45.880Z,98759.09
2019-05-17T16:29:52.055Z,98763.93
2019-05-17T16:34:57.806Z,99014.60
2019-05-17T16:40:07.114Z,99250.89
2019-05-17T16:45:14.864Z,99456.42
2019-05-17T16:50:20.802Z,100077.45
2019-05-17T16:55:26.591Z,100161.59
2019-05-17T17:00:38.438Z,100091.52
2019-05-17T17:05:44.131Z,100138.13
2019-05-17T17:10:49.961Z,100109.06
2019-05-17T17:15:55.756Z,100008.62
2019-05-17T17:21:01.539Z,99955.07
2019-05-17T17:26:07.406Z,99897.07
2019-05-17T17:31:15.985Z,99877.81
2019-05-17T17:36:21.829Z,99850.64
2019-05-17T17:41:27.794Z,99803.27
2019-05-17T17:46:33.522Z,99628.27
2019-05-17T17:51:39.353Z,99404.45
2019-05-17T17:56:45.102Z,98711.42
2019-05-17T18:01:50.956Z,98557.00
2019-05-17T18:06:56.848Z,98218.61
2019-05-17T18:12:02.585Z,98198.10
2019-05-17T18:17:08.794Z,98120.73
2019-05-17T18:22:14.644Z,98126.81
2019-05-17T18:27:20.301Z,98259.06
2019-05-17T18:32:26.009Z,98389.95
2019-05-17T18:37:31.861Z,98789.72
2019-05-17T18:42:37.716Z,99073.77
2019-05-17T18:47:43.790Z,99269.06
2019-05-17T18:52:49.660Z,99427.91
2019-05-17T18:57:55.539Z,99368.34
2019-05-17T19:03:01.411Z,99294.82
2019-05-17T19:08:07.119Z,99337.89
2019-05-17T19:13:14.224Z,99279.28
2019-05-17T19:18:19.934Z,99256.39
2019-05-17T19:23:26.115Z,99186.27
2019-05-17T19:28:31.882Z,99081.89
2019-05-17T19:33:37.651Z,98850.29
2019-05-17T19:38:43.468Z,98750.48
2019-05-17T19:43:50.879Z,98612.83
2019-05-17T19:48:56.587Z,98600.95
2019-05-17T19:54:02.299Z,98721.03
2019-05-17T19:59:07.970Z,98678.16
2019-05-17T20:04:13.655Z,98602.93
2019-05-17T20:09:19.333Z,98456.30
2019-05-17T20:14:25.025Z,98390.91
2019-05-17T20:19:30.838Z,98381.86
2019-05-17T20:24:36.516Z,98242.43
2019-05-17T20:29:42.362Z,98071.48
2019-05-17T20:34:48.620Z,97901.18
2019-05-17T20:39:54.232Z,97821.68
2019-05-17T20:45:00.356Z,97744.87
2019-05-17T20:50:09.852Z,97855.77
2019-05-17T20:55:16.741Z,97675.87
2019-05-17T21:00:22.509Z,97629.20
2019-05-17T21:05:28.307Z,97672.16
2019-05-17T21:10:34.330Z,97668.68
2019-05-17T21:15:47.394Z,97625.49
2019-05-17T21:20:47.814Z,97699.59
2019-05-17T21:25:53.891Z,97754.29
2019-05-17T21:30:59.693Z,97838.73
2019-05-17T21:36:06.135Z,98085.59
2019-05-17T21:41:11.914Z,98118.97
2019-05-17T21:46:17.782Z,98075.79
2019-05-17T21:51:23.698Z,98024.77
2019-05-17T21:56:30.492Z,98035.45
2019-05-17T22:01:36.419Z,97959.67
2019-05-17T22:06:42.179Z,97937.60
2019-05-17T22:11:49.604Z,98002.11
2019-05-17T22:16:55.478Z,97995.78
2019-05-17T22:22:01.583Z,98034.58
2019-05-17T22:27:07.579Z,98064.06
2019-05-17T22:32:13.257Z,98050.93
2019-05-17T22:37:18.966Z,98096.53
2019-05-17T22:42:24.676Z,98191.55
2019-05-17T22:47:31.921Z,98317.14
2019-05-17T22:52:37.574Z,98440.70
2019-05-17T22:57:43.298Z,98491.78
2019-05-17T23:02:48.977Z,98459.98
2019-05-17T23:07:54.728Z,98396.15
2019-05-17T23:13:00.406Z,98407.89
2019-05-17T23:18:06.134Z,98513.45
2019-05-17T23:23:15.242Z,98576.20
2019-05-17T23:28:19.233Z,98582.97
2019-05-17T23:33:24.827Z,98670.50
2019-05-17T23:38:30.586Z,98867.83
2019-05-17T23:43:36.297Z,98911.29
2019-05-17T23:48:41.954Z,98955.03
2019-05-17T23:53:47.602Z,99023.23
2019-05-17T23:58:53.269Z,99046.67
